Time;durP1;ratioP1;P1;durP2;ratioP2;P2;SDS_P1;SDS_P2;PMS_P1;PMS_P2;Temp;Humidity;BMP_temperature;BMP_pressure;BME280_temperature;BME280_humidity;BME280_pressure;Samples;Min_cycle;Max_cycle;Signal;HPM_P1;HPM_P2
2023/04/04 00:01:05;;;;;;;0.50;0.50;;;;;;;23.83;35.33;99075.52;1867077;76;28056;-57
2023/04/04 00:03:54;;;;;;;1.00;0.60;;;;;;;23.90;35.35;99098.95;1864922;76;28066;-51
2023/04/04 00:06:44;;;;;;;0.50;0.50;;;;;;;23.91;35.32;99099.78;1886076;75;28568;-51
2023/04/04 00:09:32;;;;;;;0.70;0.70;;;;;;;23.91;35.38;99094.30;1841008;76;28274;-53
2023/04/04 00:12:21;;;;;;;0.45;0.45;;;;;;;23.89;35.41;99095.09;1870159;75;28150;-53
2023/04/04 00:15:11;;;;;;;1.62;0.70;;;;;;;23.91;35.43;99099.78;1851650;75;28059;-54
2023/04/04 00:17:59;;;;;;;0.60;0.60;;;;;;;23.92;35.43;99094.60;1838772;76;28236;-54
2023/04/04 00:20:48;;;;;;;0.53;0.53;;;;;;;23.94;35.45;99095.17;1844041;75;28245;-54
2023/04/04 00:23:36;;;;;;;0.60;0.60;;;;;;;23.93;35.43;99097.62;1859224;75;28201;-50
2023/04/04 00:26:28;;;;;;;0.47;0.47;;;;;;;23.95;35.47;99095.45;1843916;75;28150;-56
2023/04/04 00:29:16;;;;;;;0.33;0.33;;;;;;;23.93;35.46;99089.39;1835003;76;28209;-54
2023/04/04 00:32:05;;;;;;;0.70;0.70;;;;;;;23.93;35.46;99089.39;1848148;76;28177;-53
2023/04/04 00:34:56;;;;;;;0.40;0.40;;;;;;;23.94;35.48;99086.37;1870846;75;28169;-55
2023/04/04 00:37:44;;;;;;;0.50;0.50;;;;;;;23.93;35.50;99084.73;1849506;76;28055;-52
2023/04/04 00:40:42;;;;;;;0.40;0.40;;;;;;;23.94;35.55;99078.72;1870841;75;28103;-55
2023/04/04 00:43:32;;;;;;;0.50;0.50;;;;;;;23.94;35.53;99078.15;1855117;75;28194;-54
2023/04/04 00:46:21;;;;;;;0.50;0.50;;;;;;;23.92;35.54;99068.55;1868626;76;28138;-54
2023/04/04 00:49:10;;;;;;;0.50;0.50;;;;;;;23.94;35.53;99078.15;1873174;75;28084;-52
2023/04/04 00:51:58;;;;;;;0.57;0.57;;;;;;;23.94;35.56;99071.86;1870826;75;28306;-54
2023/04/04 00:54:47;;;;;;;0.55;0.55;;;;;;;23.94;35.60;99077.34;1838036;76;28168;-53
2023/04/04 00:57:35;;;;;;;0.40;0.40;;;;;;;23.97;35.57;99078.19;1839491;76;28140;-51
2023/04/04 01:00:24;;;;;;;0.60;0.60;;;;;;;23.97;35.52;99081.77;1864428;75;28107;-54
2023/04/04 01:03:13;;;;;;;0.50;0.50;;;;;;;23.98;35.52;99072.47;1866268;76;35442;-52
2023/04/04 01:06:02;;;;;;;0.60;0.60;;;;;;;23.97;35.56;99068.58;1856926;75;28099;-54
2023/04/04 01:08:52;;;;;;;0.78;0.50;;;;;;;23.98;35.52;99071.63;1858973;76;28334;-55
2023/04/04 01:11:40;;;;;;;0.60;0.60;;;;;;;23.99;35.54;99074.11;1827053;77;28328;-53
2023/04/04 01:14:30;;;;;;;0.70;0.60;;;;;;;24.00;35.52;99066.71;1858497;75;28189;-51
2023/04/04 01:17:20;;;;;;;0.50;0.50;;;;;;;24.00;35.52;99050.25;1844780;77;28147;-55
2023/04/04 01:20:19;;;;;;;0.60;0.40;;;;;;;23.98;35.50;99057.38;1868785;75;28149;-55
2023/04/04 01:23:16;;;;;;;0.40;0.40;;;;;;;24.00;35.49;99051.62;1851844;75;28015;-55
2023/04/04 01:26:06;;;;;;;0.37;0.37;;;;;;;23.99;35.54;99056.27;1880112;75;28060;-52
2023/04/04 01:28:58;;;;;;;0.50;0.50;;;;;;;24.02;35.51;99048.08;1843562;75;28053;-55
2023/04/04 01:31:58;;;;;;;0.50;0.50;;;;;;;24.01;35.52;99057.41;1857506;76;28221;-54
2023/04/04 01:35:07;;;;;;;0.40;0.40;;;;;;;24.04;35.47;99057.72;1849967;75;28156;-52
2023/04/04 01:38:15;;;;;;;1.00;0.40;;;;;;;24.02;35.53;99053.56;1791976;76;28492;-51
2023/04/04 01:41:07;;;;;;;0.50;0.50;;;;;;;24.02;35.53;99052.20;1844827;75;28136;-55
2023/04/04 01:43:56;;;;;;;1.02;0.60;;;;;;;24.00;35.62;99040.65;1836422;77;28229;-52
2023/04/04 01:46:45;;;;;;;0.60;0.60;;;;;;;24.04;35.51;99050.02;1851252;76;28207;-51
2023/04/04 01:49:34;;;;;;;0.47;0.47;;;;;;;24.07;35.48;99051.46;1836505;75;28156;-52
2023/04/04 01:52:23;;;;;;;0.40;0.40;;;;;;;24.07;35.48;99052.30;1821161;77;28146;-51
2023/04/04 01:55:12;;;;;;;0.33;0.33;;;;;;;24.09;35.47;99048.75;1844094;76;28232;-53
2023/04/04 01:58:00;;;;;;;0.50;0.50;;;;;;;24.12;35.44;99044.13;1838700;76;28328;-50
2023/04/04 02:00:49;;;;;;;0.40;0.40;;;;;;;24.12;35.41;99049.63;1797569;78;28214;-55
2023/04/04 02:03:37;;;;;;;0.40;0.40;;;;;;;24.12;35.42;99045.51;1829850;77;28063;-52
2023/04/04 02:06:25;;;;;;;0.30;0.30;;;;;;;24.13;35.38;99052.67;1817630;77;28117;-53
2023/04/04 02:09:14;;;;;;;1.80;0.60;;;;;;;24.15;35.39;99045.55;1821252;77;28098;-50
2023/04/04 02:12:02;;;;;;;0.50;0.50;;;;;;;24.13;35.39;99047.18;1789011;78;28302;-55
2023/04/04 02:14:51;;;;;;;0.35;0.35;;;;;;;24.13;35.39;99050.46;1809179;78;28217;-54
2023/04/04 02:17:40;;;;;;;0.40;0.40;;;;;;;24.14;35.37;99045.23;1803452;79;28289;-55
2023/04/04 02:20:29;;;;;;;0.62;0.42;;;;;;;24.14;35.33;99044.70;1792343;78;28182;-54
2023/04/04 02:23:17;;;;;;;0.40;0.40;;;;;;;24.17;35.33;99045.58;1804305;78;28087;-54
2023/04/04 02:26:05;;;;;;;0.30;0.30;;;;;;;24.17;35.36;99046.11;1812820;78;28255;-54
2023/04/04 02:28:54;;;;;;;0.55;0.55;;;;;;;24.18;35.32;99047.78;1780710;79;28289;-53
2023/04/04 02:31:43;;;;;;;0.57;0.57;;;;;;;24.20;35.28;99046.98;1792684;79;28291;-55
2023/04/04 02:34:31;;;;;;;0.40;0.40;;;;;;;24.20;35.27;99046.41;1803717;79;28217;-53
2023/04/04 02:37:20;;;;;;;0.70;0.47;;;;;;;24.23;35.13;99040.42;1789619;78;28219;-50
2023/04/04 02:40:11;;;;;;;0.53;0.53;;;;;;;24.23;35.13;99040.42;1816643;78;28149;-53
2023/04/04 02:43:00;;;;;;;1.50;0.40;;;;;;;24.23;35.29;99043.70;1821877;78;28294;-54
2023/04/04 02:45:49;;;;;;;0.50;0.50;;;;;;;24.23;35.28;99039.05;1811346;78;28252;-55
2023/04/04 02:48:42;;;;;;;0.35;0.35;;;;;;;24.23;35.20;99041.80;1782928;79;28330;-54
2023/04/04 02:51:32;;;;;;;0.50;0.50;;;;;;;24.22;35.26;99042.90;1803409;78;28263;-51
2023/04/04 02:54:20;;;;;;;0.40;0.40;;;;;;;24.23;35.08;99048.66;1847373;75;28226;-55
2023/04/04 02:57:09;;;;;;;0.50;0.50;;;;;;;24.26;35.00;99052.27;1844999;77;28053;-52
2023/04/04 02:59:57;;;;;;;0.30;0.30;;;;;;;24.26;34.75;99038.55;1851604;76;28169;-53
2023/04/04 03:02:46;;;;;;;0.50;0.50;;;;;;;24.27;34.98;99045.68;1857178;75;35094;-51
2023/04/04 03:05:35;;;;;;;0.50;0.50;;;;;;;24.28;35.03;99047.35;1852181;75;28107;-54
2023/04/04 03:08:23;;;;;;;0.40;0.40;;;;;;;24.27;35.04;99035.27;1878037;75;28286;-53
2023/04/04 03:11:12;;;;;;;0.40;0.40;;;;;;;24.27;35.05;99034.70;1872484;75;28112;-52
2023/04/04 03:14:01;;;;;;;0.50;0.50;;;;;;;24.29;35.04;99039.42;1855782;75;28193;-53
2023/04/04 03:16:51;;;;;;;0.47;0.47;;;;;;;24.29;35.05;99036.67;1860400;75;28065;-53
2023/04/04 03:19:40;;;;;;;0.47;0.47;;;;;;;24.29;35.08;99038.05;1791162;79;28298;-52
2023/04/04 03:22:29;;;;;;;0.28;0.28;;;;;;;24.31;35.11;99040.52;1819761;78;28083;-53
2023/04/04 03:25:19;;;;;;;0.30;0.30;;;;;;;24.30;35.06;99039.69;1821687;78;28197;-56
2023/04/04 03:28:11;;;;;;;0.35;0.35;;;;;;;24.31;35.07;99038.61;1807939;78;28310;-54
2023/04/04 03:31:05;;;;;;;0.33;0.33;;;;;;;24.32;35.04;99041.63;1793452;79;28310;-52
2023/04/04 03:33:54;;;;;;;0.47;0.47;;;;;;;24.31;35.07;99037.78;1817593;78;28319;-53
2023/04/04 03:36:45;;;;;;;0.50;0.50;;;;;;;24.32;35.10;99038.88;1794671;79;28325;-54
2023/04/04 03:39:33;;;;;;;0.30;0.30;;;;;;;24.33;35.04;99035.06;1809580;79;28323;-53
2023/04/04 03:42:21;;;;;;;0.33;0.33;;;;;;;24.34;35.00;99031.22;1804869;79;28392;-53
2023/04/04 03:45:11;;;;;;;0.40;0.40;;;;;;;24.34;35.02;99038.08;1798935;79;36413;-53
2023/04/04 03:47:59;;;;;;;0.55;0.55;;;;;;;24.36;34.98;99042.80;1816590;78;28224;-51
2023/04/04 03:50:49;;;;;;;0.50;0.50;;;;;;;24.38;34.95;99039.78;1821193;78;28122;-53
2023/04/04 03:53:38;;;;;;;0.33;0.33;;;;;;;24.39;34.92;99042.80;1791673;79;28366;-50
2023/04/04 03:56:26;;;;;;;0.70;0.30;;;;;;;24.39;34.92;99032.65;1802507;79;28336;-53
2023/04/04 03:59:15;;;;;;;0.40;0.40;;;;;;;24.41;34.87;99040.08;1795734;77;28369;-52
2023/04/04 04:02:04;;;;;;;0.50;0.50;;;;;;;24.42;34.64;99047.24;1799044;78;28318;-52
2023/04/04 04:04:52;;;;;;;0.70;0.57;;;;;;;24.43;34.51;99046.70;1803953;79;28283;-50
2023/04/04 04:07:44;;;;;;;0.70;0.50;;;;;;;24.44;34.46;99046.97;1833153;77;28264;-55
2023/04/04 04:10:33;;;;;;;0.50;0.50;;;;;;;24.29;34.65;99043.53;1803933;79;28338;-54
2023/04/04 04:13:22;;;;;;;0.40;0.40;;;;;;;24.14;34.92;99037.84;1780372;79;28376;-53
2023/04/04 04:16:11;;;;;;;0.30;0.30;;;;;;;23.98;35.10;99022.25;1867775;75;28283;-51
2023/04/04 04:19:00;;;;;;;0.40;0.40;;;;;;;24.02;35.20;99038.47;1855648;75;28052;-54
2023/04/04 04:21:50;;;;;;;0.33;0.33;;;;;;;23.96;35.29;99035.39;1873172;75;28097;-51
2023/04/04 04:24:39;;;;;;;0.40;0.40;;;;;;;23.96;35.36;99036.77;1842623;76;28193;-49
2023/04/04 04:27:29;;;;;;;0.20;0.20;;;;;;;23.98;35.34;99042.29;1850161;77;28151;-53
2023/04/04 04:30:18;;;;;;;0.50;0.50;;;;;;;23.96;35.35;99038.14;1864675;75;28201;-53
2023/04/04 04:33:07;;;;;;;0.42;0.42;;;;;;;23.97;35.36;99041.15;1845861;77;28331;-52
2023/04/04 04:36:02;;;;;;;0.40;0.40;;;;;;;23.96;35.34;99044.99;1856961;76;28103;-52
2023/04/04 04:38:51;;;;;;;0.50;0.50;;;;;;;23.98;35.33;99044.20;1871291;75;28095;-52
2023/04/04 04:41:41;;;;;;;0.50;0.35;;;;;;;23.96;35.35;99046.36;1872503;75;28078;-52
2023/04/04 04:44:31;;;;;;;0.42;0.42;;;;;;;23.98;35.29;99046.40;1884330;75;28089;-51
2023/04/04 04:47:20;;;;;;;1.25;0.42;;;;;;;23.99;35.32;99047.23;1854794;77;28104;-51
2023/04/04 04:50:10;;;;;;;0.35;0.35;;;;;;;23.98;35.34;99054.63;1840001;77;28271;-55
2023/04/04 04:53:00;;;;;;;0.37;0.37;;;;;;;24.00;35.33;99051.62;1861360;75;28043;-55
2023/04/04 04:55:51;;;;;;;0.60;0.60;;;;;;;24.02;35.29;99054.41;1883886;75;28062;-49
2023/04/04 04:58:39;;;;;;;0.33;0.25;;;;;;;24.04;35.26;99054.14;1859855;76;30131;-49
2023/04/04 05:01:29;;;;;;;0.43;0.43;;;;;;;24.06;35.23;99054.77;1846980;77;28141;-48
2023/04/04 05:04:18;;;;;;;0.30;0.30;;;;;;;24.06;35.22;99061.63;1865494;76;28142;-52
2023/04/04 05:07:08;;;;;;;0.30;0.30;;;;;;;24.08;35.21;99073.18;1877565;75;28134;-51
2023/04/04 05:09:57;;;;;;;0.50;0.50;;;;;;;24.06;35.25;99069.86;1864985;76;28215;-54
2023/04/04 05:12:47;;;;;;;0.30;0.30;;;;;;;24.09;35.21;99075.36;1881277;75;28072;-49
2023/04/04 05:15:37;;;;;;;0.45;0.45;;;;;;;24.08;35.23;99067.69;1838577;77;28125;-49
2023/04/04 05:18:26;;;;;;;0.30;0.30;;;;;;;24.10;35.20;99066.05;1805721;78;28339;-51
2023/04/04 05:21:16;;;;;;;0.30;0.30;;;;;;;24.12;35.13;99071.58;1799223;78;28364;-52
2023/04/04 05:24:06;;;;;;;0.35;0.35;;;;;;;24.11;35.19;99074.02;1807015;78;28332;-53
2023/04/04 05:26:56;;;;;;;0.40;0.40;;;;;;;24.11;35.16;99063.05;1815770;78;28293;-49
2023/04/04 05:29:46;;;;;;;0.40;0.40;;;;;;;24.12;35.13;99071.58;1803868;78;28217;-52
2023/04/04 05:32:35;;;;;;;0.25;0.25;;;;;;;24.11;35.15;99068.53;1810046;78;28212;-52
2023/04/04 05:35:25;;;;;;;0.30;0.30;;;;;;;24.12;35.10;99081.18;1818926;78;28277;-51
2023/04/04 05:38:14;;;;;;;0.35;0.35;;;;;;;24.13;35.15;99082.02;1806046;78;28303;-54
2023/04/04 05:41:05;;;;;;;0.47;0.47;;;;;;;24.12;35.13;99088.05;1808797;78;28338;-55
2023/04/04 05:43:53;;;;;;;1.00;1.00;;;;;;;24.19;35.16;99102.41;1821456;77;28830;-53
2023/04/04 05:46:43;;;;;;;0.50;0.50;;;;;;;24.27;32.34;99083.30;1813551;78;28345;-54
2023/04/04 05:49:32;;;;;;;0.40;0.40;;;;;;;24.33;33.00;99084.47;1813743;78;28225;-54
2023/04/04 05:52:22;;;;;;;0.40;0.40;;;;;;;24.37;32.73;99091.10;1822164;78;28223;-53
2023/04/04 05:55:11;;;;;;;0.60;0.60;;;;;;;24.42;32.94;99094.45;1818205;77;28326;-51
2023/04/04 05:57:59;;;;;;;0.50;0.40;;;;;;;24.46;33.08;99094.22;1819622;78;28392;-51
2023/04/04 06:00:49;;;;;;;0.37;0.30;;;;;;;24.48;33.11;99095.63;1806585;78;28301;-54
2023/04/04 06:03:38;;;;;;;0.33;0.33;;;;;;;24.51;33.11;99097.87;1874651;74;28189;-52
2023/04/04 06:06:28;;;;;;;0.40;0.40;;;;;;;24.55;33.08;99096.26;1880904;75;28169;-53
2023/04/04 06:09:17;;;;;;;0.30;0.30;;;;;;;24.57;33.03;99105.09;1868890;75;28114;-55
2023/04/04 06:12:06;;;;;;;0.50;0.50;;;;;;;24.58;33.04;99105.36;1828410;77;28146;-54
2023/04/04 06:14:55;;;;;;;0.30;0.30;;;;;;;24.63;32.98;99104.05;1809579;78;28236;-51
2023/04/04 06:17:45;;;;;;;0.40;0.40;;;;;;;24.59;32.95;99107.04;1869635;76;28027;-53
2023/04/04 06:20:33;;;;;;;0.40;0.40;;;;;;;24.61;32.97;99109.52;1866498;76;28155;-53
2023/04/04 06:23:21;;;;;;;0.30;0.30;;;;;;;24.59;32.98;99111.16;1858318;76;28215;-55
2023/04/04 06:26:11;;;;;;;0.50;0.50;;;;;;;24.58;32.98;99114.14;1869924;74;28107;-53
2023/04/04 06:29:01;;;;;;;0.30;0.30;;;;;;;24.57;33.00;99111.96;1868821;75;28322;-52
2023/04/04 06:31:51;;;;;;;0.50;0.50;;;;;;;24.56;33.00;99110.83;1827611;77;28370;-54
2023/04/04 06:34:41;;;;;;;0.50;0.50;;;;;;;24.56;33.03;99113.57;1870346;75;28593;-56
2023/04/04 06:37:30;;;;;;;0.42;0.42;;;;;;;24.55;33.04;99116.85;1856703;76;30134;-54
2023/04/04 06:40:21;;;;;;;0.30;0.30;;;;;;;24.56;33.10;99124.02;1833459;77;28121;-51
2023/04/04 06:43:10;;;;;;;0.40;0.40;;;;;;;24.59;33.01;99118.02;1884166;75;28100;-54
2023/04/04 06:46:00;;;;;;;0.40;0.40;;;;;;;24.60;32.96;99126.53;1862146;76;28148;-51
2023/04/04 06:48:48;;;;;;;0.50;0.50;;;;;;;24.57;33.14;99124.32;1855418;76;28393;-52
2023/04/04 06:51:39;;;;;;;1.57;0.60;;;;;;;24.58;33.16;99132.83;1860042;76;28158;-51
2023/04/04 06:54:28;;;;;;;0.50;0.50;;;;;;;24.56;33.27;99129.52;1881685;75;28174;-50
2023/04/04 06:57:17;;;;;;;0.60;0.47;;;;;;;24.55;33.40;99138.82;1852892;76;28140;-54
2023/04/04 07:00:08;;;;;;;0.40;0.40;;;;;;;24.51;33.43;99144.55;1851427;74;28100;-52
2023/04/04 07:03:01;;;;;;;0.50;0.50;;;;;;;24.51;33.68;99140.43;1849558;75;28047;-52
2023/04/04 07:05:49;;;;;;;0.47;0.47;;;;;;;24.52;33.77;99141.27;1825309;76;28273;-49
2023/04/04 07:08:37;;;;;;;0.40;0.40;;;;;;;24.51;33.78;99144.55;1853958;76;28513;-52
2023/04/04 07:11:26;;;;;;;0.53;0.50;;;;;;;24.49;33.84;99145.88;1853654;76;28218;-53
2023/04/04 07:14:14;;;;;;;0.65;0.50;;;;;;;24.49;34.03;99156.87;1886703;75;28011;-50
2023/04/04 07:17:03;;;;;;;0.90;0.33;;;;;;;24.44;34.16;99152.14;1856230;75;28222;-54
2023/04/04 07:19:52;;;;;;;0.50;0.50;;;;;;;24.41;34.44;99151.27;1856195;76;28070;-54
2023/04/04 07:22:43;;;;;;;0.40;0.40;;;;;;;24.38;34.64;99147.69;1843162;76;28298;-54
2023/04/04 07:25:32;;;;;;;0.40;0.40;;;;;;;24.37;34.76;99148.75;1857548;76;28093;-50
2023/04/04 07:28:20;;;;;;;0.50;0.50;;;;;;;24.34;34.76;99152.00;1857502;76;28103;-53
2023/04/04 07:31:10;;;;;;;2.72;0.50;;;;;;;24.36;34.95;99149.02;1876202;75;38841;-51
2023/04/04 07:33:58;;;;;;;0.50;0.50;;;;;;;24.33;35.02;99161.34;1852934;76;28175;-50
2023/04/04 07:36:47;;;;;;;0.42;0.42;;;;;;;24.33;34.94;99162.71;1867780;75;28023;-54
2023/04/04 07:39:35;;;;;;;0.30;0.30;;;;;;;24.32;35.02;99163.78;1870142;75;28237;-51
2023/04/04 07:42:24;;;;;;;0.40;0.40;;;;;;;24.32;35.10;99161.03;1867282;76;28102;-53
2023/04/04 07:45:13;;;;;;;0.40;0.40;;;;;;;24.31;35.13;99162.14;1860178;76;28169;-51
2023/04/04 07:48:02;;;;;;;0.40;0.40;;;;;;;24.30;35.19;99165.95;1881769;75;28535;-53
2023/04/04 07:50:51;;;;;;;0.57;0.57;;;;;;;24.31;35.26;99166.25;1868022;75;28139;-50
2023/04/04 07:53:39;;;;;;;0.50;0.50;;;;;;;24.34;35.29;99162.17;1856300;76;28175;-54
2023/04/04 07:56:28;;;;;;;0.30;0.30;;;;;;;24.33;35.29;99168.20;1866863;75;27976;-53
2023/04/04 07:59:16;;;;;;;0.40;0.40;;;;;;;24.35;35.23;99167.40;1858450;75;28221;-55
2023/04/04 08:02:05;;;;;;;0.50;0.50;;;;;;;24.34;35.21;99161.61;1889365;75;28031;-52
2023/04/04 08:04:53;;;;;;;0.65;0.50;;;;;;;24.35;35.23;99163.28;1853773;76;28100;-53
2023/04/04 08:07:41;;;;;;;0.63;0.63;;;;;;;24.35;35.25;99167.40;1854160;76;28153;-54
2023/04/04 08:10:30;;;;;;;0.50;0.50;;;;;;;24.35;35.31;99166.56;1854152;76;28189;-52
2023/04/04 08:13:19;;;;;;;0.50;0.50;;;;;;;24.34;35.29;99164.35;1868461;76;28165;-53
2023/04/04 08:16:07;;;;;;;0.40;0.40;;;;;;;24.33;35.29;99161.34;1825619;76;28201;-54
2023/04/04 08:18:55;;;;;;;0.30;0.30;;;;;;;24.36;35.31;99167.70;1841329;77;28161;-53
2023/04/04 08:21:44;;;;;;;0.37;0.37;;;;;;;24.35;35.32;99168.77;1842866;77;28028;-51
2023/04/04 08:24:33;;;;;;;0.53;0.53;;;;;;;24.36;35.32;99174.56;1800055;79;28246;-54
2023/04/04 08:27:22;;;;;;;0.40;0.40;;;;;;;24.37;35.33;99172.09;1781438;79;28310;-54
2023/04/04 08:30:13;;;;;;;0.50;0.50;;;;;;;24.35;35.31;99177.01;1804362;79;28338;-53
2023/04/04 08:33:01;;;;;;;0.40;0.40;;;;;;;24.38;35.29;99182.00;1816889;78;28166;-53
2023/04/04 08:35:50;;;;;;;0.50;0.50;;;;;;;24.37;35.31;99177.58;1802850;79;28232;-51
2023/04/04 08:38:38;;;;;;;0.40;0.40;;;;;;;24.38;35.28;99179.26;1821789;78;28138;-52
2023/04/04 08:41:28;;;;;;;0.50;0.50;;;;;;;24.38;35.28;99179.79;1802560;77;28278;-55
2023/04/04 08:44:22;;;;;;;0.30;0.30;;;;;;;24.39;35.28;99186.92;1811204;78;28725;-54
2023/04/04 08:47:11;;;;;;;0.60;0.60;;;;;;;24.39;35.32;99185.55;1803048;79;28257;-53
2023/04/04 08:50:05;;;;;;;0.40;0.40;;;;;;;24.37;35.30;99187.72;1789804;79;28345;-52
2023/04/04 08:52:50;;;;;;;0.47;0.47;;;;;;;24.36;35.26;99196.53;1807483;78;28272;-52
2023/04/04 08:55:39;;;;;;;0.50;0.50;;;;;;;24.37;35.28;99194.05;1791176;79;28212;-53
2023/04/04 08:58:28;;;;;;;0.40;0.40;;;;;;;24.38;35.26;99193.52;1799745;79;28293;-51
2023/04/04 09:01:16;;;;;;;0.40;0.40;;;;;;;24.40;35.23;99203.70;1805374;79;28271;-54
2023/04/04 09:04:06;;;;;;;0.40;0.40;;;;;;;24.37;35.29;99213.27;1789999;79;28344;-53
2023/04/04 09:06:56;;;;;;;0.40;0.40;;;;;;;24.36;35.26;99199.27;1789745;79;28371;-56
2023/04/04 09:09:49;;;;;;;0.40;0.40;;;;;;;24.37;35.28;99204.20;1843762;76;28236;-51
2023/04/04 09:12:43;;;;;;;0.47;0.47;;;;;;;24.36;35.27;99213.00;1850243;76;32079;-53
2023/04/04 09:15:34;;;;;;;0.57;0.57;;;;;;;24.37;35.28;99216.55;1847627;76;28185;-54
2023/04/04 09:18:22;;;;;;;0.30;0.30;;;;;;;24.37;35.29;99217.39;1847982;76;28194;-54
2023/04/04 09:21:13;;;;;;;0.37;0.37;;;;;;;24.39;35.24;99214.38;1850325;76;28283;-51
2023/04/04 09:24:04;;;;;;;0.60;0.40;;;;;;;24.37;35.23;99218.77;1850662;76;28099;-53
2023/04/04 09:26:53;;;;;;;0.50;0.50;;;;;;;24.37;35.22;99221.51;1848063;76;28098;-53
2023/04/04 09:29:42;;;;;;;0.50;0.50;;;;;;;24.38;35.25;99224.55;1847571;76;28206;-51
2023/04/04 09:32:31;;;;;;;0.40;0.40;;;;;;;24.37;35.21;99231.11;1868856;76;28091;-54
2023/04/04 09:35:20;;;;;;;0.42;0.42;;;;;;;24.39;35.24;99233.59;1850632;76;28052;-52
2023/04/04 09:38:09;;;;;;;0.40;0.40;;;;;;;24.38;35.20;99230.05;1840923;76;32146;-51
2023/04/04 09:40:57;;;;;;;0.50;0.50;;;;;;;24.39;35.22;99242.67;1860058;76;28181;-52
2023/04/04 09:43:47;;;;;;;0.50;0.50;;;;;;;24.39;35.17;99238.55;1851860;76;28161;-53
2023/04/04 09:46:36;;;;;;;0.50;0.50;;;;;;;24.38;35.17;99239.66;1849254;76;28164;-54
2023/04/04 09:49:26;;;;;;;0.47;0.47;;;;;;;24.40;35.13;99237.48;1847625;76;28126;-55
2023/04/04 09:52:20;;;;;;;0.60;0.60;;;;;;;24.39;35.14;99239.92;1847972;76;28288;-55
2023/04/04 09:55:09;;;;;;;0.60;0.60;;;;;;;24.40;35.13;99247.09;1851449;76;28243;-54
2023/04/04 09:57:57;;;;;;;0.40;0.40;;;;;;;24.36;35.14;99243.20;1849914;76;28591;-51
2023/04/04 10:00:48;;;;;;;0.30;0.30;;;;;;;24.39;35.13;99241.30;1867749;76;28100;-50
2023/04/04 10:03:43;;;;;;;0.45;0.45;;;;;;;24.38;35.12;99238.28;1859570;76;28101;-54
2023/04/04 10:06:27;;;;;;;0.70;0.50;;;;;;;24.38;35.08;99242.94;1853008;76;28072;-51
2023/04/04 10:09:16;;;;;;;0.50;0.50;;;;;;;24.39;35.09;99251.44;1847859;76;28103;-52
2023/04/04 10:12:12;;;;;;;0.60;0.60;;;;;;;24.38;35.08;99250.64;1864191;76;28241;-51
2023/04/04 10:15:00;;;;;;;0.50;0.50;;;;;;;24.40;35.05;99251.21;1858900;76;28200;-51
2023/04/04 10:17:52;;;;;;;0.40;0.40;;;;;;;24.40;35.01;99255.86;1852359;76;28251;-53
2023/04/04 10:20:42;;;;;;;0.40;0.40;;;;;;;24.40;35.04;99256.70;1848939;76;28099;-55
2023/04/04 10:23:30;;;;;;;0.50;0.50;;;;;;;24.39;35.02;99263.80;1862648;76;28216;-54
2023/04/04 10:26:18;;;;;;;0.55;0.55;;;;;;;24.39;35.00;99259.68;1858161;76;28064;-52
2023/04/04 10:29:06;;;;;;;0.53;0.53;;;;;;;24.38;35.03;99263.52;1853478;76;28131;-54
2023/04/04 10:32:03;;;;;;;0.60;0.60;;;;;;;24.37;35.02;99266.80;1847749;76;28235;-51
2023/04/04 10:35:09;;;;;;;0.53;0.53;;;;;;;24.40;35.00;99265.47;1847659;76;28071;-52
2023/04/04 10:38:01;;;;;;;0.40;0.40;;;;;;;24.39;34.98;99267.38;1847781;76;28186;-53
2023/04/04 10:40:52;;;;;;;0.40;0.40;;;;;;;24.37;34.99;99266.80;1848892;76;28190;-53
2023/04/04 10:43:46;;;;;;;0.60;0.60;;;;;;;24.35;35.03;99265.39;1854728;76;28169;-50
2023/04/04 10:46:37;;;;;;;0.57;0.57;;;;;;;24.35;35.00;99259.37;1858470;76;28180;-55
2023/04/04 10:49:28;;;;;;;0.45;0.45;;;;;;;24.35;35.02;99266.23;1858952;76;28129;-55
2023/04/04 10:52:22;;;;;;;0.60;0.60;;;;;;;24.37;35.00;99267.34;1858333;76;28067;-55
2023/04/04 10:55:13;;;;;;;0.47;0.47;;;;;;;24.38;34.92;99271.77;1852908;76;31157;-52
2023/04/04 10:58:02;;;;;;;0.40;0.40;;;;;;;24.38;34.92;99273.13;1849031;76;28122;-50
2023/04/04 11:00:54;;;;;;;0.60;0.60;;;;;;;24.36;34.91;99270.66;1848357;76;28099;-51
2023/04/04 11:04:16;;;;;;;0.30;0.30;;;;;;;24.40;34.92;99265.47;1858720;76;28085;-54
2023/04/04 11:07:11;;;;;;;0.70;0.70;;;;;;;24.37;34.91;99266.80;1862067;76;28111;-52
2023/04/04 11:10:01;;;;;;;0.50;0.50;;;;;;;24.30;35.00;99268.89;1857840;76;28060;-53
2023/04/04 11:12:55;;;;;;;0.50;0.50;;;;;;;24.33;35.01;99268.94;1853938;76;28150;-54
2023/04/04 11:15:58;;;;;;;0.53;0.53;;;;;;;24.32;35.00;99270.84;1848476;76;31061;-51
2023/04/04 11:18:47;;;;;;;0.40;0.40;;;;;;;24.34;34.98;99268.67;1839590;76;28197;-53
2023/04/04 11:21:38;;;;;;;0.80;0.42;;;;;;;24.32;34.99;99261.23;1858829;76;28095;-54
2023/04/04 11:24:28;;;;;;;0.60;0.60;;;;;;;24.34;34.92;99261.00;1856302;76;28200;-54
2023/04/04 11:27:17;;;;;;;0.70;0.70;;;;;;;24.34;34.91;99254.95;1850577;76;28067;-53
2023/04/04 11:30:09;;;;;;;0.57;0.50;;;;;;;24.35;34.89;99259.91;1848116;76;28052;-53
2023/04/04 11:33:02;;;;;;;0.55;0.55;;;;;;;24.35;34.88;99253.04;1847864;76;28221;-54
2023/04/04 11:35:50;;;;;;;0.47;0.47;;;;;;;24.36;34.89;99254.18;1869209;76;28056;-53
2023/04/04 11:38:42;;;;;;;0.40;0.40;;;;;;;24.36;34.87;99251.97;1856460;76;28150;-55
2023/04/04 11:41:50;;;;;;;0.50;0.50;;;;;;;24.38;34.81;99258.88;1866345;76;28155;-55
2023/04/04 11:45:02;;;;;;;0.60;0.60;;;;;;;24.38;34.80;99257.50;1841549;76;28170;-50
2023/04/04 11:47:52;;;;;;;0.60;0.60;;;;;;;24.37;34.83;99261.84;1858562;76;28180;-53
2023/04/04 11:50:42;;;;;;;0.33;0.33;;;;;;;24.34;34.88;99257.69;1858944;76;28137;-52
2023/04/04 11:53:31;;;;;;;0.70;0.53;;;;;;;24.35;34.85;99259.37;1853830;76;28056;-54
2023/04/04 11:56:20;;;;;;;1.20;0.70;;;;;;;24.35;34.80;99258.53;1848046;76;28064;-54
2023/04/04 11:59:08;;;;;;;0.50;0.50;;;;;;;24.35;34.78;99259.91;1842965;76;28164;-53
2023/04/04 12:01:58;;;;;;;0.55;0.55;;;;;;;24.35;34.79;99256.63;1836400;77;28309;-55
2023/04/04 12:04:47;;;;;;;0.60;0.60;;;;;;;24.35;34.72;99259.37;1853074;76;28218;-55
2023/04/04 12:07:36;;;;;;;0.72;0.72;;;;;;;24.39;34.76;99258.30;1847904;76;28586;-55
2023/04/04 12:10:26;;;;;;;0.60;0.60;;;;;;;24.39;34.72;99259.14;1848029;76;28615;-53
2023/04/04 12:13:15;;;;;;;0.70;0.70;;;;;;;24.38;34.69;99253.92;1869277;76;28074;-52
2023/04/04 12:16:04;;;;;;;0.70;0.60;;;;;;;24.37;34.71;99250.87;1854322;76;28204;-49
2023/04/04 12:18:52;;;;;;;0.60;0.60;;;;;;;24.39;34.71;99266.54;1845765;76;28155;-50
2023/04/04 12:21:41;;;;;;;0.78;0.78;;;;;;;24.39;34.72;99258.30;1855320;76;28243;-53
2023/04/04 12:24:29;;;;;;;0.40;0.40;;;;;;;24.40;34.73;99258.61;1859783;76;33013;-49
2023/04/04 12:27:18;;;;;;;0.50;0.50;;;;;;;24.38;34.72;99257.50;1859714;76;28089;-53
2023/04/04 12:30:14;;;;;;;0.60;0.60;;;;;;;24.38;34.68;99259.41;1849396;76;28236;-56
2023/04/04 12:32:59;;;;;;;0.60;0.60;;;;;;;24.38;34.73;99250.64;1867467;76;28126;-54
2023/04/04 12:35:54;;;;;;;0.68;0.68;;;;;;;24.39;34.71;99251.44;1846014;77;28281;-51
2023/04/04 12:39:03;;;;;;;1.20;0.60;;;;;;;24.39;34.67;99254.19;1860038;76;28111;-52
2023/04/04 12:42:00;;;;;;;0.70;0.70;;;;;;;24.38;34.66;99250.64;1846480;77;28160;-52
2023/04/04 12:44:51;;;;;;;0.57;0.57;;;;;;;24.36;34.71;99248.69;1868066;76;28247;-52
2023/04/04 12:47:41;;;;;;;0.53;0.50;;;;;;;24.35;34.72;99253.87;1867571;76;28173;-48
2023/04/04 12:50:29;;;;;;;0.50;0.50;;;;;;;24.35;34.72;99253.87;1865715;76;28217;-56
2023/04/04 12:53:22;;;;;;;0.60;0.60;;;;;;;24.37;34.71;99257.73;1860238;76;28088;-55
2023/04/04 12:56:10;;;;;;;0.93;0.78;;;;;;;24.36;34.69;99254.18;1856858;76;28150;-56
2023/04/04 12:59:04;;;;;;;0.50;0.50;;;;;;;24.35;34.67;99255.25;1857024;76;28161;-55
2023/04/04 13:01:53;;;;;;;0.60;0.60;;;;;;;24.37;34.67;99254.45;1878457;76;28107;-54
2023/04/04 13:04:53;;;;;;;0.70;0.70;;;;;;;24.34;34.72;99245.34;1870374;76;28092;-51
2023/04/04 13:07:42;;;;;;;0.60;0.60;;;;;;;24.36;34.67;99240.98;1866634;76;28119;-54
2023/04/04 13:10:28;;;;;;;0.55;0.55;;;;;;;24.36;34.68;99239.61;1857129;76;28095;-52
2023/04/04 13:13:31;;;;;;;0.50;0.50;;;;;;;24.36;34.68;99243.20;1857075;76;28618;-53
2023/04/04 13:16:40;;;;;;;0.53;0.53;;;;;;;24.35;34.66;99235.20;1864874;76;28092;-54
2023/04/04 13:19:24;;;;;;;0.60;0.60;;;;;;;24.33;34.66;99232.71;1862831;76;28072;-54
2023/04/04 13:22:12;;;;;;;0.60;0.60;;;;;;;24.30;34.73;99229.63;1843092;77;28113;-52